sensor_id;sensor_type;location;lat;lon;timestamp;P1;durP1;ratioP1;P2;durP2;ratioP2
73852;SDS011;62191;51.548;5.688;2022-11-04T00:02:01;18.35;;;13.28;;
73852;SDS011;62191;51.548;5.688;2022-11-04T00:04:28;21.00;;;16.07;;
73852;SDS011;62191;51.548;5.688;2022-11-04T00:06:56;24.20;;;16.02;;
73852;SDS011;62191;51.548;5.688;2022-11-04T00:09:24;22.10;;;16.55;;
73852;SDS011;62191;51.548;5.688;2022-11-04T00:11:53;27.13;;;17.37;;
73852;SDS011;62191;51.548;5.688;2022-11-04T00:14:39;19.10;;;11.45;;
73852;SDS011;62191;51.548;5.688;2022-11-04T00:17:10;9.50;;;7.37;;
73852;SDS011;62191;51.548;5.688;2022-11-04T00:19:45;9.58;;;6.03;;
73852;SDS011;62191;51.548;5.688;2022-11-04T00:22:31;5.93;;;4.47;;
73852;SDS011;62191;51.548;5.688;2022-11-04T00:25:18;6.15;;;4.83;;
73852;SDS011;62191;51.548;5.688;2022-11-04T00:28:07;8.13;;;3.95;;
73852;SDS011;62191;51.548;5.688;2022-11-04T00:30:56;5.90;;;4.03;;
73852;SDS011;62191;51.548;5.688;2022-11-04T00:33:26;5.60;;;4.20;;
73852;SDS011;62191;51.548;5.688;2022-11-04T00:35:54;5.93;;;3.73;;
73852;SDS011;62191;51.548;5.688;2022-11-04T00:38:23;6.73;;;4.87;;
73852;SDS011;62191;51.548;5.688;2022-11-04T00:40:51;9.50;;;5.17;;
73852;SDS011;62191;51.548;5.688;2022-11-04T00:43:18;8.23;;;6.17;;
73852;SDS011;62191;51.548;5.688;2022-11-04T00:45:45;14.40;;;7.27;;
73852;SDS011;62191;51.548;5.688;2022-11-04T00:48:12;12.43;;;9.43;;
73852;SDS011;62191;51.548;5.688;2022-11-04T00:50:40;20.55;;;11.33;;
73852;SDS011;62191;51.548;5.688;2022-11-04T00:53:10;19.85;;;13.03;;
73852;SDS011;62191;51.548;5.688;2022-11-04T00:55:37;21.57;;;15.07;;
73852;SDS011;62191;51.548;5.688;2022-11-04T00:58:04;19.20;;;15.10;;
73852;SDS011;62191;51.548;5.688;2022-11-04T01:00:31;21.73;;;15.10;;
73852;SDS011;62191;51.548;5.688;2022-11-04T01:02:59;19.57;;;13.10;;
73852;SDS011;62191;51.548;5.688;2022-11-04T01:05:26;23.17;;;14.93;;
73852;SDS011;62191;51.548;5.688;2022-11-04T01:07:55;21.40;;;14.53;;
73852;SDS011;62191;51.548;5.688;2022-11-04T01:10:23;25.07;;;14.33;;
73852;SDS011;62191;51.548;5.688;2022-11-04T01:12:51;22.90;;;13.83;;
73852;SDS011;62191;51.548;5.688;2022-11-04T01:15:20;23.77;;;14.27;;
73852;SDS011;62191;51.548;5.688;2022-11-04T01:17:47;22.95;;;15.00;;
73852;SDS011;62191;51.548;5.688;2022-11-04T01:20:14;19.20;;;13.43;;
73852;SDS011;62191;51.548;5.688;2022-11-04T01:22:42;24.60;;;14.27;;
73852;SDS011;62191;51.548;5.688;2022-11-04T01:25:09;19.02;;;12.82;;
73852;SDS011;62191;51.548;5.688;2022-11-04T01:27:36;20.87;;;12.83;;
73852;SDS011;62191;51.548;5.688;2022-11-04T01:30:04;17.27;;;13.20;;
73852;SDS011;62191;51.548;5.688;2022-11-04T01:32:32;21.67;;;13.70;;
73852;SDS011;62191;51.548;5.688;2022-11-04T01:34:59;21.50;;;13.87;;
73852;SDS011;62191;51.548;5.688;2022-11-04T01:37:26;21.77;;;13.83;;
73852;SDS011;62191;51.548;5.688;2022-11-04T01:39:54;27.43;;;15.03;;
73852;SDS011;62191;51.548;5.688;2022-11-04T01:42:21;20.50;;;12.67;;
73852;SDS011;62191;51.548;5.688;2022-11-04T01:47:21;25.57;;;14.00;;
73852;SDS011;62191;51.548;5.688;2022-11-04T01:49:50;25.03;;;14.13;;
73852;SDS011;62191;51.548;5.688;2022-11-04T01:52:25;24.23;;;13.07;;
73852;SDS011;62191;51.548;5.688;2022-11-04T01:54:50;22.87;;;12.20;;
73852;SDS011;62191;51.548;5.688;2022-11-04T01:57:22;20.50;;;13.37;;
73852;SDS011;62191;51.548;5.688;2022-11-04T01:59:49;20.90;;;12.67;;
73852;SDS011;62191;51.548;5.688;2022-11-04T02:02:16;23.73;;;12.43;;
73852;SDS011;62191;51.548;5.688;2022-11-04T02:04:44;22.77;;;12.33;;
73852;SDS011;62191;51.548;5.688;2022-11-04T02:07:11;22.40;;;12.00;;
73852;SDS011;62191;51.548;5.688;2022-11-04T02:09:39;23.33;;;11.67;;
73852;SDS011;62191;51.548;5.688;2022-11-04T02:12:07;19.37;;;11.57;;
73852;SDS011;62191;51.548;5.688;2022-11-04T02:14:52;20.77;;;10.37;;
73852;SDS011;62191;51.548;5.688;2022-11-04T02:17:28;17.97;;;10.20;;
73852;SDS011;62191;51.548;5.688;2022-11-04T02:19:58;24.30;;;9.50;;
73852;SDS011;62191;51.548;5.688;2022-11-04T02:22:36;15.90;;;8.87;;
73852;SDS011;62191;51.548;5.688;2022-11-04T02:31:13;12.35;;;7.87;;
73852;SDS011;62191;51.548;5.688;2022-11-04T02:34:03;16.67;;;7.23;;
73852;SDS011;62191;51.548;5.688;2022-11-04T02:36:47;15.43;;;7.47;;
73852;SDS011;62191;51.548;5.688;2022-11-04T02:39:32;13.47;;;6.80;;
73852;SDS011;62191;51.548;5.688;2022-11-04T02:44:36;16.47;;;6.57;;
73852;SDS011;62191;51.548;5.688;2022-11-04T02:47:10;14.20;;;6.07;;
73852;SDS011;62191;51.548;5.688;2022-11-04T02:49:43;11.30;;;5.60;;
73852;SDS011;62191;51.548;5.688;2022-11-04T02:52:28;11.37;;;5.00;;
73852;SDS011;62191;51.548;5.688;2022-11-04T02:54:57;12.30;;;5.70;;
73852;SDS011;62191;51.548;5.688;2022-11-04T02:57:27;16.03;;;6.53;;
73852;SDS011;62191;51.548;5.688;2022-11-04T02:59:56;15.00;;;6.73;;
73852;SDS011;62191;51.548;5.688;2022-11-04T03:02:37;15.43;;;7.43;;
73852;SDS011;62191;51.548;5.688;2022-11-04T03:05:05;23.47;;;8.23;;
73852;SDS011;62191;51.548;5.688;2022-11-04T03:07:36;19.03;;;8.43;;
73852;SDS011;62191;51.548;5.688;2022-11-04T03:10:06;23.97;;;10.07;;
73852;SDS011;62191;51.548;5.688;2022-11-04T03:12:54;17.10;;;9.27;;
73852;SDS011;62191;51.548;5.688;2022-11-04T03:15:24;23.57;;;9.60;;
73852;SDS011;62191;51.548;5.688;2022-11-04T03:17:57;17.23;;;9.13;;
73852;SDS011;62191;51.548;5.688;2022-11-04T03:20:33;24.13;;;11.77;;
73852;SDS011;62191;51.548;5.688;2022-11-04T03:23:02;26.40;;;10.40;;
73852;SDS011;62191;51.548;5.688;2022-11-04T03:25:35;24.00;;;10.97;;
73852;SDS011;62191;51.548;5.688;2022-11-04T03:28:21;23.20;;;10.83;;
73852;SDS011;62191;51.548;5.688;2022-11-04T03:30:41;28.53;;;9.87;;
73852;SDS011;62191;51.548;5.688;2022-11-04T03:35:57;24.73;;;9.77;;
73852;SDS011;62191;51.548;5.688;2022-11-04T03:38:24;30.57;;;9.83;;
73852;SDS011;62191;51.548;5.688;2022-11-04T03:40:52;24.27;;;8.47;;
73852;SDS011;62191;51.548;5.688;2022-11-04T03:43:25;23.67;;;8.03;;
73852;SDS011;62191;51.548;5.688;2022-11-04T03:45:53;18.07;;;7.85;;
73852;SDS011;62191;51.548;5.688;2022-11-04T03:48:21;17.97;;;7.83;;
73852;SDS011;62191;51.548;5.688;2022-11-04T03:50:50;18.53;;;8.40;;
73852;SDS011;62191;51.548;5.688;2022-11-04T03:53:18;24.07;;;8.43;;
73852;SDS011;62191;51.548;5.688;2022-11-04T03:58:37;19.67;;;6.63;;
73852;SDS011;62191;51.548;5.688;2022-11-04T04:01:29;17.33;;;6.70;;
73852;SDS011;62191;51.548;5.688;2022-11-04T04:06:49;18.77;;;6.40;;
73852;SDS011;62191;51.548;5.688;2022-11-04T04:09:19;19.77;;;5.90;;
73852;SDS011;62191;51.548;5.688;2022-11-04T04:11:52;16.10;;;6.40;;
73852;SDS011;62191;51.548;5.688;2022-11-04T04:14:27;19.40;;;6.33;;
73852;SDS011;62191;51.548;5.688;2022-11-04T04:17:12;19.45;;;6.05;;
73852;SDS011;62191;51.548;5.688;2022-11-04T04:19:42;16.87;;;6.17;;
73852;SDS011;62191;51.548;5.688;2022-11-04T04:22:17;15.10;;;5.50;;
73852;SDS011;62191;51.548;5.688;2022-11-04T04:24:45;14.53;;;5.93;;
73852;SDS011;62191;51.548;5.688;2022-11-04T04:27:32;18.83;;;6.07;;
73852;SDS011;62191;51.548;5.688;2022-11-04T04:32:34;20.20;;;6.73;;
73852;SDS011;62191;51.548;5.688;2022-11-04T04:35:09;21.30;;;7.27;;
73852;SDS011;62191;51.548;5.688;2022-11-04T04:37:55;20.17;;;7.73;;
73852;SDS011;62191;51.548;5.688;2022-11-04T04:40:27;27.80;;;8.27;;
73852;SDS011;62191;51.548;5.688;2022-11-04T04:43:14;21.33;;;8.10;;
73852;SDS011;62191;51.548;5.688;2022-11-04T04:46:00;21.20;;;6.77;;
73852;SDS011;62191;51.548;5.688;2022-11-04T04:48:28;24.33;;;7.70;;
73852;SDS011;62191;51.548;5.688;2022-11-04T04:50:56;21.23;;;7.80;;
73852;SDS011;62191;51.548;5.688;2022-11-04T04:53:26;13.53;;;6.40;;
73852;SDS011;62191;51.548;5.688;2022-11-04T04:55:53;23.37;;;7.77;;
73852;SDS011;62191;51.548;5.688;2022-11-04T04:58:22;24.43;;;8.23;;
73852;SDS011;62191;51.548;5.688;2022-11-04T05:00:49;23.53;;;8.43;;
73852;SDS011;62191;51.548;5.688;2022-11-04T05:03:17;31.97;;;7.93;;
73852;SDS011;62191;51.548;5.688;2022-11-04T05:05:44;20.67;;;6.43;;
73852;SDS011;62191;51.548;5.688;2022-11-04T05:08:11;21.57;;;7.43;;
73852;SDS011;62191;51.548;5.688;2022-11-04T05:10:40;19.40;;;7.30;;
73852;SDS011;62191;51.548;5.688;2022-11-04T05:13:08;21.93;;;7.77;;
73852;SDS011;62191;51.548;5.688;2022-11-04T05:15:51;25.37;;;8.23;;
73852;SDS011;62191;51.548;5.688;2022-11-04T05:18:19;19.63;;;7.20;;
73852;SDS011;62191;51.548;5.688;2022-11-04T05:20:46;21.80;;;7.27;;
73852;SDS011;62191;51.548;5.688;2022-11-04T05:23:13;23.07;;;7.83;;
73852;SDS011;62191;51.548;5.688;2022-11-04T05:25:40;26.10;;;8.10;;
73852;SDS011;62191;51.548;5.688;2022-11-04T05:28:08;24.43;;;7.57;;
73852;SDS011;62191;51.548;5.688;2022-11-04T05:30:35;19.63;;;8.80;;
73852;SDS011;62191;51.548;5.688;2022-11-04T05:33:03;20.50;;;8.00;;
73852;SDS011;62191;51.548;5.688;2022-11-04T05:35:31;33.27;;;10.57;;
73852;SDS011;62191;51.548;5.688;2022-11-04T05:37:58;25.20;;;8.77;;
73852;SDS011;62191;51.548;5.688;2022-11-04T05:40:25;14.73;;;7.77;;
73852;SDS011;62191;51.548;5.688;2022-11-04T05:42:53;25.50;;;9.17;;
73852;SDS011;62191;51.548;5.688;2022-11-04T05:45:23;25.50;;;9.80;;
73852;SDS011;62191;51.548;5.688;2022-11-04T05:47:57;23.40;;;10.00;;
73852;SDS011;62191;51.548;5.688;2022-11-04T05:50:28;28.57;;;9.70;;
73852;SDS011;62191;51.548;5.688;2022-11-04T05:52:59;35.13;;;11.87;;
73852;SDS011;62191;51.548;5.688;2022-11-04T05:55:26;34.87;;;10.77;;
73852;SDS011;62191;51.548;5.688;2022-11-04T05:57:54;34.93;;;11.87;;
73852;SDS011;62191;51.548;5.688;2022-11-04T06:00:22;34.17;;;11.63;;
73852;SDS011;62191;51.548;5.688;2022-11-04T06:02:49;38.13;;;12.37;;
73852;SDS011;62191;51.548;5.688;2022-11-04T06:05:19;27.83;;;10.63;;
73852;SDS011;62191;51.548;5.688;2022-11-04T06:07:47;34.63;;;12.90;;
73852;SDS011;62191;51.548;5.688;2022-11-04T06:10:14;33.57;;;12.60;;
73852;SDS011;62191;51.548;5.688;2022-11-04T06:12:42;29.93;;;12.27;;
73852;SDS011;62191;51.548;5.688;2022-11-04T06:15:09;33.37;;;12.57;;
73852;SDS011;62191;51.548;5.688;2022-11-04T06:17:36;33.40;;;12.20;;
73852;SDS011;62191;51.548;5.688;2022-11-04T06:20:04;35.10;;;12.77;;
73852;SDS011;62191;51.548;5.688;2022-11-04T06:22:32;29.80;;;12.03;;
73852;SDS011;62191;51.548;5.688;2022-11-04T06:24:59;26.33;;;12.17;;
73852;SDS011;62191;51.548;5.688;2022-11-04T06:27:26;23.90;;;11.30;;
73852;SDS011;62191;51.548;5.688;2022-11-04T06:29:53;32.13;;;13.77;;
73852;SDS011;62191;51.548;5.688;2022-11-04T06:32:21;36.67;;;12.87;;
73852;SDS011;62191;51.548;5.688;2022-11-04T06:34:48;31.63;;;11.73;;
73852;SDS011;62191;51.548;5.688;2022-11-04T06:37:15;26.53;;;12.10;;
73852;SDS011;62191;51.548;5.688;2022-11-04T06:39:43;32.37;;;11.10;;
73852;SDS011;62191;51.548;5.688;2022-11-04T06:42:10;22.90;;;10.20;;
73852;SDS011;62191;51.548;5.688;2022-11-04T06:44:37;22.97;;;9.23;;
73852;SDS011;62191;51.548;5.688;2022-11-04T06:47:04;24.93;;;9.77;;
73852;SDS011;62191;51.548;5.688;2022-11-04T06:49:32;29.87;;;10.20;;
73852;SDS011;62191;51.548;5.688;2022-11-04T06:51:59;20.63;;;9.57;;
73852;SDS011;62191;51.548;5.688;2022-11-04T06:54:27;28.90;;;11.67;;
73852;SDS011;62191;51.548;5.688;2022-11-04T06:56:54;31.23;;;11.80;;
73852;SDS011;62191;51.548;5.688;2022-11-04T06:59:21;36.60;;;12.53;;
73852;SDS011;62191;51.548;5.688;2022-11-04T07:01:49;22.53;;;10.37;;
73852;SDS011;62191;51.548;5.688;2022-11-04T07:04:16;24.77;;;10.07;;
73852;SDS011;62191;51.548;5.688;2022-11-04T07:06:44;94.53;;;15.23;;
73852;SDS011;62191;51.548;5.688;2022-11-04T07:09:12;19.97;;;9.40;;
73852;SDS011;62191;51.548;5.688;2022-11-04T07:11:40;30.40;;;11.83;;
73852;SDS011;62191;51.548;5.688;2022-11-04T07:14:08;27.93;;;11.60;;
73852;SDS011;62191;51.548;5.688;2022-11-04T07:16:36;37.97;;;12.33;;
73852;SDS011;62191;51.548;5.688;2022-11-04T07:19:04;28.80;;;12.30;;
73852;SDS011;62191;51.548;5.688;2022-11-04T07:21:31;26.90;;;12.57;;
73852;SDS011;62191;51.548;5.688;2022-11-04T07:23:59;39.50;;;14.60;;
73852;SDS011;62191;51.548;5.688;2022-11-04T07:26:27;37.10;;;13.13;;
73852;SDS011;62191;51.548;5.688;2022-11-04T07:28:54;28.07;;;12.60;;
73852;SDS011;62191;51.548;5.688;2022-11-04T07:31:22;31.67;;;13.77;;
73852;SDS011;62191;51.548;5.688;2022-11-04T07:33:49;43.53;;;14.67;;
73852;SDS011;62191;51.548;5.688;2022-11-04T07:36:17;36.33;;;14.43;;
73852;SDS011;62191;51.548;5.688;2022-11-04T07:38:45;38.63;;;14.93;;
73852;SDS011;62191;51.548;5.688;2022-11-04T07:41:13;49.47;;;15.53;;
73852;SDS011;62191;51.548;5.688;2022-11-04T07:43:41;38.07;;;15.23;;
73852;SDS011;62191;51.548;5.688;2022-11-04T07:46:09;37.27;;;14.47;;
73852;SDS011;62191;51.548;5.688;2022-11-04T07:48:39;25.57;;;12.43;;
73852;SDS011;62191;51.548;5.688;2022-11-04T07:51:07;30.30;;;12.17;;
73852;SDS011;62191;51.548;5.688;2022-11-04T07:53:36;24.63;;;12.07;;
73852;SDS011;62191;51.548;5.688;2022-11-04T07:56:04;23.47;;;12.93;;
73852;SDS011;62191;51.548;5.688;2022-11-04T07:58:33;32.63;;;13.30;;
73852;SDS011;62191;51.548;5.688;2022-11-04T08:01:01;30.37;;;14.60;;
73852;SDS011;62191;51.548;5.688;2022-11-04T08:03:33;32.27;;;14.90;;
73852;SDS011;62191;51.548;5.688;2022-11-04T08:06:02;27.20;;;12.53;;
73852;SDS011;62191;51.548;5.688;2022-11-04T08:08:31;26.97;;;11.93;;
73852;SDS011;62191;51.548;5.688;2022-11-04T08:11:00;25.70;;;11.33;;
73852;SDS011;62191;51.548;5.688;2022-11-04T08:13:30;24.50;;;10.43;;
73852;SDS011;62191;51.548;5.688;2022-11-04T08:16:02;23.60;;;9.85;;
73852;SDS011;62191;51.548;5.688;2022-11-04T08:18:31;20.23;;;9.37;;
73852;SDS011;62191;51.548;5.688;2022-11-04T08:20:59;20.43;;;9.80;;
73852;SDS011;62191;51.548;5.688;2022-11-04T08:23:27;17.90;;;9.40;;
73852;SDS011;62191;51.548;5.688;2022-11-04T08:25:54;18.55;;;9.68;;
73852;SDS011;62191;51.548;5.688;2022-11-04T08:28:22;25.10;;;10.63;;
73852;SDS011;62191;51.548;5.688;2022-11-04T08:30:55;19.60;;;10.10;;
73852;SDS011;62191;51.548;5.688;2022-11-04T08:33:25;32.25;;;10.90;;
73852;SDS011;62191;51.548;5.688;2022-11-04T08:35:54;18.92;;;8.85;;
73852;SDS011;62191;51.548;5.688;2022-11-04T08:38:23;16.48;;;7.78;;
73852;SDS011;62191;51.548;5.688;2022-11-04T08:40:50;20.48;;;8.43;;
73852;SDS011;62191;51.548;5.688;2022-11-04T08:43:18;19.65;;;8.65;;
73852;SDS011;62191;51.548;5.688;2022-11-04T08:45:45;19.82;;;8.30;;
73852;SDS011;62191;51.548;5.688;2022-11-04T08:48:12;21.57;;;9.45;;
73852;SDS011;62191;51.548;5.688;2022-11-04T08:50:41;15.00;;;8.45;;
73852;SDS011;62191;51.548;5.688;2022-11-04T08:53:10;15.58;;;8.68;;
73852;SDS011;62191;51.548;5.688;2022-11-04T08:55:37;17.70;;;8.53;;
73852;SDS011;62191;51.548;5.688;2022-11-04T08:58:04;19.67;;;8.50;;
73852;SDS011;62191;51.548;5.688;2022-11-04T09:00:32;18.50;;;9.10;;
73852;SDS011;62191;51.548;5.688;2022-11-04T09:02:59;15.55;;;7.85;;
73852;SDS011;62191;51.548;5.688;2022-11-04T09:05:26;14.25;;;8.05;;
73852;SDS011;62191;51.548;5.688;2022-11-04T09:07:54;15.18;;;9.08;;
73852;SDS011;62191;51.548;5.688;2022-11-04T09:10:21;20.05;;;8.38;;
73852;SDS011;62191;51.548;5.688;2022-11-04T09:12:48;22.90;;;10.90;;
73852;SDS011;62191;51.548;5.688;2022-11-04T09:15:16;29.43;;;11.63;;
73852;SDS011;62191;51.548;5.688;2022-11-04T09:17:43;24.15;;;9.83;;
73852;SDS011;62191;51.548;5.688;2022-11-04T09:20:10;23.70;;;11.83;;
73852;SDS011;62191;51.548;5.688;2022-11-04T09:22:38;25.15;;;13.05;;
73852;SDS011;62191;51.548;5.688;2022-11-04T09:25:05;21.93;;;11.20;;
73852;SDS011;62191;51.548;5.688;2022-11-04T09:27:32;25.80;;;12.20;;
73852;SDS011;62191;51.548;5.688;2022-11-04T09:30:00;21.85;;;11.48;;
73852;SDS011;62191;51.548;5.688;2022-11-04T09:32:29;16.30;;;9.83;;
73852;SDS011;62191;51.548;5.688;2022-11-04T09:34:56;19.90;;;9.70;;
73852;SDS011;62191;51.548;5.688;2022-11-04T09:37:23;14.25;;;9.53;;
73852;SDS011;62191;51.548;5.688;2022-11-04T09:39:51;23.42;;;10.88;;
73852;SDS011;62191;51.548;5.688;2022-11-04T09:42:31;24.87;;;8.63;;
73852;SDS011;62191;51.548;5.688;2022-11-04T09:45:13;17.73;;;7.58;;
73852;SDS011;62191;51.548;5.688;2022-11-04T09:47:44;18.73;;;9.40;;
73852;SDS011;62191;51.548;5.688;2022-11-04T09:50:21;15.32;;;8.95;;
73852;SDS011;62191;51.548;5.688;2022-11-04T09:53:06;20.92;;;8.10;;
73852;SDS011;62191;51.548;5.688;2022-11-04T09:55:38;16.50;;;9.00;;
73852;SDS011;62191;51.548;5.688;2022-11-04T09:58:08;18.32;;;8.68;;
73852;SDS011;62191;51.548;5.688;2022-11-04T10:00:38;14.30;;;8.55;;
73852;SDS011;62191;51.548;5.688;2022-11-04T10:03:14;15.98;;;8.08;;
73852;SDS011;62191;51.548;5.688;2022-11-04T10:08:22;16.85;;;6.85;;
73852;SDS011;62191;51.548;5.688;2022-11-04T10:16:22;11.22;;;4.67;;
73852;SDS011;62191;51.548;5.688;2022-11-04T10:24:32;12.23;;;4.12;;
73852;SDS011;62191;51.548;5.688;2022-11-04T10:26:59;18.15;;;5.17;;
73852;SDS011;62191;51.548;5.688;2022-11-04T10:29:42;13.72;;;5.72;;
73852;SDS011;62191;51.548;5.688;2022-11-04T10:32:21;13.32;;;5.37;;
73852;SDS011;62191;51.548;5.688;2022-11-04T10:34:56;13.25;;;4.90;;
73852;SDS011;62191;51.548;5.688;2022-11-04T10:37:26;10.48;;;5.58;;
73852;SDS011;62191;51.548;5.688;2022-11-04T10:40:28;20.70;;;6.17;;
73852;SDS011;62191;51.548;5.688;2022-11-04T10:42:34;20.75;;;8.00;;
73852;SDS011;62191;51.548;5.688;2022-11-04T10:45:01;21.35;;;7.92;;
73852;SDS011;62191;51.548;5.688;2022-11-04T10:47:39;12.13;;;4.62;;
73852;SDS011;62191;51.548;5.688;2022-11-04T10:50:20;14.40;;;5.25;;
73852;SDS011;62191;51.548;5.688;2022-11-04T10:53:35;13.53;;;5.45;;
73852;SDS011;62191;51.548;5.688;2022-11-04T10:55:32;19.40;;;7.87;;
73852;SDS011;62191;51.548;5.688;2022-11-04T10:58:02;18.32;;;8.68;;
73852;SDS011;62191;51.548;5.688;2022-11-04T11:00:37;17.20;;;7.35;;
73852;SDS011;62191;51.548;5.688;2022-11-04T11:03:01;26.87;;;7.87;;
73852;SDS011;62191;51.548;5.688;2022-11-04T11:05:29;16.25;;;6.75;;
73852;SDS011;62191;51.548;5.688;2022-11-04T11:07:56;28.80;;;16.65;;
73852;SDS011;62191;51.548;5.688;2022-11-04T11:10:25;19.85;;;9.80;;
73852;SDS011;62191;51.548;5.688;2022-11-04T11:13:00;20.75;;;8.83;;
73852;SDS011;62191;51.548;5.688;2022-11-04T11:15:32;40.63;;;22.32;;
73852;SDS011;62191;51.548;5.688;2022-11-04T11:20:46;22.32;;;13.22;;
73852;SDS011;62191;51.548;5.688;2022-11-04T11:26:03;21.97;;;12.55;;
73852;SDS011;62191;51.548;5.688;2022-11-04T11:28:35;19.80;;;9.95;;
73852;SDS011;62191;51.548;5.688;2022-11-04T11:31:07;26.37;;;13.93;;
73852;SDS011;62191;51.548;5.688;2022-11-04T11:33:51;17.25;;;11.57;;
73852;SDS011;62191;51.548;5.688;2022-11-04T11:36:26;24.75;;;14.28;;
73852;SDS011;62191;51.548;5.688;2022-11-04T11:41:32;23.50;;;14.83;;
73852;SDS011;62191;51.548;5.688;2022-11-04T11:44:03;25.00;;;14.73;;
73852;SDS011;62191;51.548;5.688;2022-11-04T11:46:34;28.70;;;16.73;;
73852;SDS011;62191;51.548;5.688;2022-11-04T11:49:03;25.05;;;16.05;;
73852;SDS011;62191;51.548;5.688;2022-11-04T11:51:39;25.23;;;16.80;;
73852;SDS011;62191;51.548;5.688;2022-11-04T11:56:56;23.45;;;16.10;;
73852;SDS011;62191;51.548;5.688;2022-11-04T12:05:01;27.40;;;17.42;;
73852;SDS011;62191;51.548;5.688;2022-11-04T12:10:28;24.72;;;14.60;;
73852;SDS011;62191;51.548;5.688;2022-11-04T12:13:15;15.72;;;8.10;;
73852;SDS011;62191;51.548;5.688;2022-11-04T12:18:46;20.60;;;8.98;;
73852;SDS011;62191;51.548;5.688;2022-11-04T12:21:26;16.48;;;8.35;;
73852;SDS011;62191;51.548;5.688;2022-11-04T12:24:09;15.90;;;9.28;;
73852;SDS011;62191;51.548;5.688;2022-11-04T12:26:38;16.07;;;9.10;;
73852;SDS011;62191;51.548;5.688;2022-11-04T12:43:18;16.15;;;8.20;;
73852;SDS011;62191;51.548;5.688;2022-11-04T12:46:03;16.95;;;9.65;;
73852;SDS011;62191;51.548;5.688;2022-11-04T12:51:53;16.93;;;7.37;;
73852;SDS011;62191;51.548;5.688;2022-11-04T12:57:22;14.65;;;7.20;;
73852;SDS011;62191;51.548;5.688;2022-11-04T13:00:04;11.18;;;6.90;;
73852;SDS011;62191;51.548;5.688;2022-11-04T13:02:43;17.85;;;8.73;;
73852;SDS011;62191;51.548;5.688;2022-11-04T13:10:41;13.98;;;6.58;;
73852;SDS011;62191;51.548;5.688;2022-11-04T13:13:13;19.00;;;6.62;;
73852;SDS011;62191;51.548;5.688;2022-11-04T13:15:45;12.43;;;6.20;;
73852;SDS011;62191;51.548;5.688;2022-11-04T13:18:18;20.97;;;6.95;;
73852;SDS011;62191;51.548;5.688;2022-11-04T13:21:01;14.60;;;6.28;;
73852;SDS011;62191;51.548;5.688;2022-11-04T13:23:38;17.27;;;6.87;;
73852;SDS011;62191;51.548;5.688;2022-11-04T13:26:10;12.65;;;6.67;;
73852;SDS011;62191;51.548;5.688;2022-11-04T13:28:39;16.30;;;7.45;;
73852;SDS011;62191;51.548;5.688;2022-11-04T13:36:46;20.25;;;9.68;;
73852;SDS011;62191;51.548;5.688;2022-11-04T13:39:19;17.62;;;10.08;;
73852;SDS011;62191;51.548;5.688;2022-11-04T13:44:24;17.70;;;9.50;;
73852;SDS011;62191;51.548;5.688;2022-11-04T13:46:54;15.80;;;10.00;;
73852;SDS011;62191;51.548;5.688;2022-11-04T13:49:24;18.87;;;10.20;;
73852;SDS011;62191;51.548;5.688;2022-11-04T13:52:02;14.78;;;9.35;;
73852;SDS011;62191;51.548;5.688;2022-11-04T13:54:37;17.95;;;10.48;;
73852;SDS011;62191;51.548;5.688;2022-11-04T13:57:13;20.40;;;10.05;;
73852;SDS011;62191;51.548;5.688;2022-11-04T14:00:04;15.75;;;10.82;;
73852;SDS011;62191;51.548;5.688;2022-11-04T14:02:40;16.05;;;10.08;;
73852;SDS011;62191;51.548;5.688;2022-11-04T14:18:54;39.13;;;14.38;;
73852;SDS011;62191;51.548;5.688;2022-11-04T14:21:26;23.10;;;13.60;;
73852;SDS011;62191;51.548;5.688;2022-11-04T14:23:53;24.55;;;15.72;;
73852;SDS011;62191;51.548;5.688;2022-11-04T14:26:27;21.15;;;15.40;;
73852;SDS011;62191;51.548;5.688;2022-11-04T14:31:36;25.92;;;16.55;;
73852;SDS011;62191;51.548;5.688;2022-11-04T14:34:04;24.25;;;15.40;;
73852;SDS011;62191;51.548;5.688;2022-11-04T14:36:33;25.02;;;16.12;;
73852;SDS011;62191;51.548;5.688;2022-11-04T14:44:25;20.17;;;15.40;;
73852;SDS011;62191;51.548;5.688;2022-11-04T14:49:59;23.23;;;16.93;;
73852;SDS011;62191;51.548;5.688;2022-11-04T14:55:15;23.50;;;16.93;;
73852;SDS011;62191;51.548;5.688;2022-11-04T14:57:45;21.45;;;15.85;;
73852;SDS011;62191;51.548;5.688;2022-11-04T15:05:55;23.27;;;14.90;;
73852;SDS011;62191;51.548;5.688;2022-11-04T15:11:03;21.68;;;15.65;;
73852;SDS011;62191;51.548;5.688;2022-11-04T15:13:31;23.40;;;15.98;;
73852;SDS011;62191;51.548;5.688;2022-11-04T15:16:03;22.02;;;14.05;;
73852;SDS011;62191;51.548;5.688;2022-11-04T15:18:42;22.95;;;15.48;;
73852;SDS011;62191;51.548;5.688;2022-11-04T15:21:09;26.20;;;14.58;;
73852;SDS011;62191;51.548;5.688;2022-11-04T15:23:38;21.77;;;15.40;;
73852;SDS011;62191;51.548;5.688;2022-11-04T15:26:13;26.55;;;15.00;;
73852;SDS011;62191;51.548;5.688;2022-11-04T15:28:39;20.70;;;15.63;;
73852;SDS011;62191;51.548;5.688;2022-11-04T15:33:43;20.03;;;14.10;;
73852;SDS011;62191;51.548;5.688;2022-11-04T15:36:14;17.20;;;14.18;;
73852;SDS011;62191;51.548;5.688;2022-11-04T15:38:52;21.57;;;14.47;;
73852;SDS011;62191;51.548;5.688;2022-11-04T15:41:24;18.10;;;12.55;;
73852;SDS011;62191;51.548;5.688;2022-11-04T15:44:17;21.82;;;13.80;;
73852;SDS011;62191;51.548;5.688;2022-11-04T15:46:51;19.57;;;12.58;;
73852;SDS011;62191;51.548;5.688;2022-11-04T15:49:24;17.75;;;11.80;;
73852;SDS011;62191;51.548;5.688;2022-11-04T15:51:53;20.70;;;10.65;;
73852;SDS011;62191;51.548;5.688;2022-11-04T15:54:29;11.75;;;8.60;;
73852;SDS011;62191;51.548;5.688;2022-11-04T15:56:58;13.85;;;8.25;;
73852;SDS011;62191;51.548;5.688;2022-11-04T15:59:32;11.95;;;7.20;;
73852;SDS011;62191;51.548;5.688;2022-11-04T16:02:01;11.33;;;6.92;;
73852;SDS011;62191;51.548;5.688;2022-11-04T16:04:29;15.30;;;7.78;;
73852;SDS011;62191;51.548;5.688;2022-11-04T16:07:06;10.88;;;6.95;;
73852;SDS011;62191;51.548;5.688;2022-11-04T16:09:43;11.48;;;6.92;;
73852;SDS011;62191;51.548;5.688;2022-11-04T16:12:12;13.18;;;7.08;;
73852;SDS011;62191;51.548;5.688;2022-11-04T16:14:48;13.75;;;7.37;;
73852;SDS011;62191;51.548;5.688;2022-11-04T16:17:16;14.65;;;6.95;;
73852;SDS011;62191;51.548;5.688;2022-11-04T16:19:45;12.75;;;6.28;;
73852;SDS011;62191;51.548;5.688;2022-11-04T16:22:23;10.48;;;6.75;;
73852;SDS011;62191;51.548;5.688;2022-11-04T16:24:48;11.30;;;6.83;;
73852;SDS011;62191;51.548;5.688;2022-11-04T16:27:18;11.00;;;6.55;;
73852;SDS011;62191;51.548;5.688;2022-11-04T16:30:00;11.45;;;6.37;;
73852;SDS011;62191;51.548;5.688;2022-11-04T16:32:26;14.25;;;6.33;;
73852;SDS011;62191;51.548;5.688;2022-11-04T16:34:57;12.50;;;6.22;;
73852;SDS011;62191;51.548;5.688;2022-11-04T16:37:26;7.55;;;6.03;;
73852;SDS011;62191;51.548;5.688;2022-11-04T16:39:55;6.37;;;4.22;;
73852;SDS011;62191;51.548;5.688;2022-11-04T16:42:22;6.37;;;3.77;;
73852;SDS011;62191;51.548;5.688;2022-11-04T16:44:50;9.18;;;4.15;;
73852;SDS011;62191;51.548;5.688;2022-11-04T16:47:20;8.48;;;4.40;;
73852;SDS011;62191;51.548;5.688;2022-11-04T16:49:47;9.83;;;4.58;;
73852;SDS011;62191;51.548;5.688;2022-11-04T16:52:16;7.28;;;4.47;;
73852;SDS011;62191;51.548;5.688;2022-11-04T16:54:47;17.07;;;5.65;;
73852;SDS011;62191;51.548;5.688;2022-11-04T16:57:15;10.85;;;5.72;;
73852;SDS011;62191;51.548;5.688;2022-11-04T16:59:43;11.10;;;5.65;;
73852;SDS011;62191;51.548;5.688;2022-11-04T17:02:24;9.53;;;5.80;;